createdAt,value
2022-09-22T00:01:20.624Z,102177.94
2022-09-22T00:04:23.242Z,102176.50
2022-09-22T00:07:25.945Z,102172.06
2022-09-22T00:10:29.068Z,102168.44
2022-09-22T00:13:33.728Z,102163.50
2022-09-22T00:16:39.858Z,102164.31
2022-09-22T00:19:42.581Z,102162.66
2022-09-22T00:22:45.239Z,102163.81
2022-09-22T00:25:48.299Z,102158.56
2022-09-22T00:28:53.257Z,102156.84
2022-09-22T00:31:56.708Z,102165.16
2022-09-22T00:34:59.306Z,102155.00
2022-09-22T00:38:01.986Z,102156.00
2022-09-22T00:41:05.789Z,102154.59
2022-09-22T00:44:39.498Z,102154.72
2022-09-22T00:47:45.608Z,102157.97
2022-09-22T00:50:49.614Z,102153.22
2022-09-22T00:53:54.063Z,102152.00
2022-09-22T00:57:05.306Z,102150.50
2022-09-22T01:00:12.315Z,102153.91
2022-09-22T01:03:19.140Z,102158.50
2022-09-22T01:06:26.853Z,102157.91
2022-09-22T01:09:33.108Z,102156.66
2022-09-22T01:12:37.921Z,102154.78
2022-09-22T01:15:50.178Z,102151.25
2022-09-22T01:19:09.154Z,102152.16
2022-09-22T01:22:29.276Z,102146.69
2022-09-22T01:25:59.978Z,102150.44
2022-09-22T01:29:24.127Z,102149.53
2022-09-22T01:32:31.429Z,102142.56
2022-09-22T01:35:43.654Z,102140.69
2022-09-22T01:38:55.360Z,102142.81
2022-09-22T01:42:02.615Z,102144.28
2022-09-22T01:45:09.807Z,102139.44
2022-09-22T01:48:19.068Z,102146.19
2022-09-22T01:51:27.182Z,102140.75
2022-09-22T01:54:34.234Z,102135.72
2022-09-22T01:57:44.570Z,102145.84
2022-09-22T02:00:53.522Z,102138.69
2022-09-22T02:04:03.693Z,102138.25
2022-09-22T02:07:09.841Z,102139.75
2022-09-22T02:10:17.017Z,102134.66
2022-09-22T02:13:20.119Z,102144.16
2022-09-22T02:16:24.818Z,102140.16
2022-09-22T02:19:34.131Z,102141.88
2022-09-22T02:22:36.748Z,102137.50
2022-09-22T02:25:41.713Z,102150.63
2022-09-22T02:28:45.640Z,102141.38
2022-09-22T02:31:50.412Z,102143.47
2022-09-22T02:34:55.344Z,102143.03
2022-09-22T02:38:05.871Z,102146.59
2022-09-22T02:41:15.103Z,102147.03
2022-09-22T02:44:22.600Z,102137.53
2022-09-22T02:47:30.159Z,102137.75
2022-09-22T02:50:35.549Z,102140.09
2022-09-22T02:53:38.107Z,102136.31
2022-09-22T02:56:40.829Z,102145.19
2022-09-22T02:59:43.394Z,102137.16
2022-09-22T03:02:46.104Z,102134.22
2022-09-22T03:05:50.023Z,102137.38
2022-09-22T03:08:53.661Z,102128.97
2022-09-22T03:11:56.269Z,102132.38
2022-09-22T03:14:58.971Z,102133.44
2022-09-22T03:18:01.548Z,102136.19
2022-09-22T03:21:05.985Z,102135.56
2022-09-22T03:24:08.899Z,102139.78
2022-09-22T03:27:11.583Z,102130.50
2022-09-22T03:30:14.632Z,102139.56
2022-09-22T03:33:17.279Z,102130.94
2022-09-22T03:36:21.681Z,102131.97
2022-09-22T03:39:24.258Z,102131.75
2022-09-22T03:42:27.014Z,102124.19
2022-09-22T03:45:29.590Z,102130.09
2022-09-22T03:48:32.818Z,102128.38
2022-09-22T03:51:39.380Z,102129.00
2022-09-22T03:54:41.989Z,102124.19
2022-09-22T03:57:44.716Z,102129.66
2022-09-22T04:00:49.389Z,102128.63
2022-09-22T04:03:52.105Z,102122.34
2022-09-22T04:06:56.096Z,102122.53
2022-09-22T04:09:58.920Z,102118.53
2022-09-22T04:13:01.519Z,102118.72
2022-09-22T04:16:04.184Z,102110.94
2022-09-22T04:19:06.778Z,102115.16
2022-09-22T04:22:10.698Z,102117.06
2022-09-22T04:25:13.303Z,102115.59
2022-09-22T04:28:15.862Z,102120.22
2022-09-22T04:31:19.786Z,102117.28
2022-09-22T04:34:22.452Z,102118.09
2022-09-22T04:37:26.699Z,102115.13
2022-09-22T04:40:30.197Z,102117.44
2022-09-22T04:43:32.870Z,102118.88
2022-09-22T04:46:35.640Z,102121.22
2022-09-22T04:49:38.205Z,102120.34
2022-09-22T04:52:46.463Z,102126.41
2022-09-22T04:55:50.521Z,102121.31
2022-09-22T04:58:53.196Z,102132.22
2022-09-22T05:01:55.786Z,102126.97
2022-09-22T05:04:58.492Z,102121.00
2022-09-22T05:08:02.824Z,102132.78
2022-09-22T05:11:08.242Z,102132.50
2022-09-22T05:14:10.913Z,102127.72
2022-09-22T05:17:14.031Z,102131.16
2022-09-22T05:20:17.667Z,102125.59
2022-09-22T05:23:21.569Z,102135.28
2022-09-22T05:26:24.806Z,102145.09
2022-09-22T05:29:28.243Z,102141.28
2022-09-22T05:32:30.842Z,102142.13
2022-09-22T05:35:36.820Z,102145.03
2022-09-22T05:38:41.146Z,102138.16
2022-09-22T05:41:43.727Z,102146.31
2022-09-22T05:44:46.514Z,102146.75
2022-09-22T05:47:49.450Z,102146.13
2022-09-22T05:50:52.048Z,102148.66
2022-09-22T05:53:56.490Z,102143.50
2022-09-22T05:56:59.166Z,102144.34
2022-09-22T06:00:02.423Z,102142.09
2022-09-22T06:03:05.269Z,102143.16
2022-09-22T06:06:07.964Z,102136.63
2022-09-22T06:09:11.916Z,102148.97
2022-09-22T06:12:14.499Z,102144.84
2022-09-22T06:15:17.372Z,102146.25
2022-09-22T06:18:24.421Z,102150.59
2022-09-22T06:21:27.573Z,102153.41
2022-09-22T06:24:31.546Z,102158.09
2022-09-22T06:27:34.114Z,102156.41
2022-09-22T06:30:40.221Z,102161.50
2022-09-22T06:33:47.114Z,102157.59
2022-09-22T06:36:50.082Z,102163.03
2022-09-22T06:39:56.182Z,102157.16
2022-09-22T06:42:59.711Z,102161.31
2022-09-22T06:46:02.859Z,102159.31
2022-09-22T06:49:05.835Z,102161.09
2022-09-22T06:52:11.362Z,102160.56
2022-09-22T06:55:19.342Z,102159.91
2022-09-22T06:58:22.877Z,102157.59
2022-09-22T07:01:27.505Z,102153.56
2022-09-22T07:04:30.140Z,102155.38
2022-09-22T07:07:35.315Z,102157.13
2022-09-22T07:10:39.230Z,102147.22
2022-09-22T07:13:43.818Z,102146.22
2022-09-22T07:16:46.671Z,102144.50
2022-09-22T07:19:51.392Z,102150.03
2022-09-22T07:23:00.854Z,102149.25
2022-09-22T07:26:05.921Z,102154.56
2022-09-22T07:29:13.215Z,102158.56
2022-09-22T07:32:15.989Z,102150.38
2022-09-22T07:35:18.762Z,102151.25
2022-09-22T07:38:21.552Z,102148.22
2022-09-22T07:41:28.340Z,102148.56
2022-09-22T07:44:48.641Z,102146.97
2022-09-22T07:48:08.981Z,102145.34
2022-09-22T07:51:18.336Z,102154.75
2022-09-22T07:54:20.930Z,102140.59
2022-09-22T07:57:25.040Z,102151.16
2022-09-22T08:00:32.949Z,102147.03
2022-09-22T08:03:36.197Z,102150.09
2022-09-22T08:06:39.275Z,102154.28
2022-09-22T08:09:41.901Z,102148.69
2022-09-22T08:12:46.395Z,102155.38
2022-09-22T08:15:56.086Z,102154.25
2022-09-22T08:19:00.291Z,102158.69
2022-09-22T08:22:03.533Z,102157.25
2022-09-22T08:25:07.378Z,102158.16
2022-09-22T08:28:12.472Z,102164.59
2022-09-22T08:31:17.871Z,102152.69
2022-09-22T08:34:22.566Z,102157.25
2022-09-22T08:37:28.298Z,102163.59
2022-09-22T08:40:31.455Z,102157.75
2022-09-22T08:43:35.943Z,102167.91
2022-09-22T08:46:44.107Z,102170.09
2022-09-22T08:50:08.434Z,102167.97
2022-09-22T08:53:16.055Z,102169.41
2022-09-22T08:56:30.712Z,102158.81
2022-09-22T08:59:39.677Z,102161.25
2022-09-22T09:02:45.729Z,102163.38
2022-09-22T09:06:00.428Z,102160.16
2022-09-22T09:09:28.563Z,102150.63
2022-09-22T09:12:44.402Z,102160.00
2022-09-22T09:16:03.115Z,102160.97
2022-09-22T09:19:12.690Z,102158.69
2022-09-22T09:22:24.882Z,102155.38
2022-09-22T09:25:35.999Z,102160.56
2022-09-22T09:28:42.907Z,102144.34
2022-09-22T09:31:52.515Z,102135.69
2022-09-22T09:34:55.926Z,102136.16
2022-09-22T09:38:01.342Z,102139.53
2022-09-22T09:41:14.549Z,102140.63
2022-09-22T09:44:21.169Z,102138.97
2022-09-22T09:47:44.019Z,102138.41
2022-09-22T09:50:46.755Z,102134.41
2022-09-22T09:53:52.047Z,102128.97
2022-09-22T09:57:10.291Z,102124.88
2022-09-22T10:00:34.592Z,102136.25
2022-09-22T10:03:46.850Z,102128.81
2022-09-22T10:06:50.209Z,102122.59
2022-09-22T10:09:54.726Z,102130.06
2022-09-22T10:13:20.995Z,102133.78
2022-09-22T10:16:24.657Z,102129.72
2022-09-22T10:19:34.551Z,102123.28
2022-09-22T10:22:39.745Z,102130.06
2022-09-22T10:25:43.092Z,102115.97
2022-09-22T10:28:51.014Z,102119.53
2022-09-22T10:32:05.711Z,102120.25
2022-09-22T10:35:28.019Z,102124.78
2022-09-22T10:38:34.946Z,102122.03
2022-09-22T10:41:39.346Z,102119.56
2022-09-22T10:44:48.188Z,102122.19
2022-09-22T10:47:57.998Z,102124.41
2022-09-22T10:51:10.619Z,102120.41
2022-09-22T10:54:35.987Z,102117.25
2022-09-22T10:58:02.088Z,102114.09
2022-09-22T11:01:22.194Z,102119.53
2022-09-22T11:04:42.859Z,102118.75
2022-09-22T11:08:19.665Z,102108.94
2022-09-22T11:11:45.751Z,102111.94
2022-09-22T11:15:18.371Z,102110.75
2022-09-22T11:18:43.075Z,102107.31
2022-09-22T11:21:57.304Z,102091.44
2022-09-22T11:25:15.654Z,102090.28
2022-09-22T11:28:34.851Z,102093.66
2022-09-22T11:31:48.684Z,102082.09
2022-09-22T11:35:15.305Z,102081.47
2022-09-22T11:38:45.731Z,102075.44
2022-09-22T11:42:02.570Z,102073.25
2022-09-22T11:45:16.903Z,102077.50
2022-09-22T11:48:35.617Z,102068.50
2022-09-22T11:51:57.640Z,102072.13
2022-09-22T11:55:15.939Z,102059.97
2022-09-22T11:58:28.993Z,102059.75
2022-09-22T12:01:38.050Z,102059.81
2022-09-22T12:04:45.669Z,102058.66
2022-09-22T12:07:55.667Z,102053.63
2022-09-22T12:10:59.129Z,102045.19
2022-09-22T12:14:23.467Z,102040.31
2022-09-22T12:17:42.179Z,102028.69
2022-09-22T12:20:55.307Z,102036.97
2022-09-22T12:24:01.934Z,102029.81
2022-09-22T12:27:12.270Z,102030.66
2022-09-22T12:30:22.715Z,102017.84
2022-09-22T12:33:27.318Z,102026.38
2022-09-22T12:36:32.797Z,102021.53
2022-09-22T12:39:41.873Z,102013.59
2022-09-22T12:42:49.488Z,102019.72
2022-09-22T12:45:55.959Z,102016.03
2022-09-22T12:48:58.836Z,102012.09
2022-09-22T12:52:01.640Z,102015.59
2022-09-22T12:55:17.811Z,102013.34
2022-09-22T12:58:40.343Z,102010.34
2022-09-22T13:01:46.222Z,102008.41
2022-09-22T13:05:23.736Z,102011.09
2022-09-22T13:08:47.087Z,102010.38
2022-09-22T13:12:25.468Z,102009.97
2022-09-22T13:15:28.986Z,102006.75
2022-09-22T13:18:38.174Z,102004.69
2022-09-22T13:21:42.067Z,102004.34
2022-09-22T13:24:44.969Z,102003.41
2022-09-22T13:27:47.752Z,102009.19
2022-09-22T13:31:03.438Z,101986.91
2022-09-22T13:34:29.362Z,101997.34
2022-09-22T13:37:32.353Z,101993.00
2022-09-22T13:40:35.540Z,101982.31
2022-09-22T13:43:40.668Z,101979.56
2022-09-22T13:46:46.399Z,101977.81
2022-09-22T13:49:54.053Z,101976.03
2022-09-22T13:52:57.314Z,101967.22
2022-09-22T13:56:01.175Z,101969.84
2022-09-22T13:59:04.777Z,101974.06
2022-09-22T14:02:10.822Z,101973.88
2022-09-22T14:05:21.683Z,101972.78
2022-09-22T14:08:28.939Z,101978.66
2022-09-22T14:11:33.246Z,101977.78
2022-09-22T14:14:35.972Z,101970.81
2022-09-22T14:17:41.815Z,101967.22
2022-09-22T14:20:46.580Z,101968.34
2022-09-22T14:23:52.549Z,101970.53
2022-09-22T14:27:03.795Z,101958.59
2022-09-22T14:30:15.790Z,101958.84
2022-09-22T14:33:23.330Z,101963.81
2022-09-22T14:36:27.522Z,101961.28
2022-09-22T14:39:34.166Z,101961.00
2022-09-22T14:42:37.159Z,101969.25
2022-09-22T14:45:57.635Z,101965.88
2022-09-22T14:49:04.395Z,101968.63
2022-09-22T14:52:16.120Z,101963.31
2022-09-22T14:55:29.792Z,101954.66
2022-09-22T14:58:40.261Z,101955.69
2022-09-22T15:02:06.819Z,101947.66
2022-09-22T15:05:11.771Z,101948.13
2022-09-22T15:08:18.876Z,101946.09
2022-09-22T15:11:21.486Z,101942.94
2022-09-22T15:14:41.278Z,101945.88
2022-09-22T15:18:02.734Z,101941.38
2022-09-22T15:21:11.925Z,101947.97
2022-09-22T15:24:21.121Z,101945.16
2022-09-22T15:27:23.892Z,101934.03
2022-09-22T15:30:26.957Z,101943.41
2022-09-22T15:33:29.655Z,101938.03
2022-09-22T15:36:33.839Z,101932.13
2022-09-22T15:39:37.770Z,101940.41
2022-09-22T15:43:02.286Z,101938.88
2022-09-22T15:46:08.806Z,101938.75
2022-09-22T15:49:15.121Z,101931.44
2022-09-22T15:52:17.732Z,101932.75
2022-09-22T15:55:24.167Z,101936.50
2022-09-22T15:58:31.676Z,101934.44
2022-09-22T16:01:34.540Z,101926.63
2022-09-22T16:04:37.592Z,101928.72
2022-09-22T16:07:42.170Z,101932.53
2022-09-22T16:10:46.505Z,101925.56
2022-09-22T16:13:49.154Z,101928.53
2022-09-22T16:16:52.259Z,101922.13
2022-09-22T16:19:55.035Z,101916.50
2022-09-22T16:23:00.297Z,101927.50
2022-09-22T16:26:06.691Z,101922.97
2022-09-22T16:29:09.886Z,101921.75
2022-09-22T16:32:12.585Z,101914.16
2022-09-22T16:35:15.411Z,101919.19
2022-09-22T16:38:18.021Z,101925.13
2022-09-22T16:41:24.694Z,101917.50
2022-09-22T16:44:27.325Z,101918.41
2022-09-22T16:47:30.019Z,101917.97
2022-09-22T16:50:32.736Z,101924.16
2022-09-22T16:53:35.583Z,101924.97
2022-09-22T16:56:39.972Z,101927.78
2022-09-22T16:59:43.031Z,101922.06
2022-09-22T17:02:46.889Z,101919.84
2022-09-22T17:05:49.465Z,101922.31
2022-09-22T17:08:52.920Z,101927.94
2022-09-22T17:11:57.984Z,101926.16
2022-09-22T17:15:00.714Z,101923.94
2022-09-22T17:18:04.296Z,101928.94
2022-09-22T17:21:08.912Z,101927.63
2022-09-22T17:24:11.485Z,101924.66
2022-09-22T17:27:15.466Z,101924.41
2022-09-22T17:30:18.253Z,101920.22
2022-09-22T17:33:21.547Z,101923.47
2022-09-22T17:36:26.140Z,101925.34
2022-09-22T17:39:30.578Z,101926.16
2022-09-22T17:42:37.659Z,101917.78
2022-09-22T17:45:40.299Z,101907.00
2022-09-22T17:49:00.807Z,101908.81
2022-09-22T17:52:21.465Z,101911.06
2022-09-22T17:55:25.445Z,101908.41
2022-09-22T17:58:29.418Z,101908.03
2022-09-22T18:01:32.179Z,101914.47
2022-09-22T18:04:34.834Z,101905.72
2022-09-22T18:07:40.357Z,101905.63
2022-09-22T18:10:46.406Z,101909.88
2022-09-22T18:13:50.544Z,101913.16
2022-09-22T18:16:53.888Z,101913.63
2022-09-22T18:19:57.501Z,101917.31
2022-09-22T18:23:00.450Z,101919.22
2022-09-22T18:26:03.737Z,101917.47
2022-09-22T18:29:10.053Z,101915.88
2022-09-22T18:32:12.608Z,101912.22
2022-09-22T18:35:16.035Z,101919.00
2022-09-22T18:38:19.892Z,101920.34
2022-09-22T18:41:23.148Z,101912.59
2022-09-22T18:44:28.255Z,101911.97
2022-09-22T18:47:30.905Z,101915.47
2022-09-22T18:50:34.778Z,101912.25
2022-09-22T18:53:37.815Z,101915.81
2022-09-22T18:56:42.214Z,101922.19
2022-09-22T18:59:46.185Z,101912.38
2022-09-22T19:02:49.235Z,101917.88
2022-09-22T19:05:52.034Z,101916.91
2022-09-22T19:08:55.616Z,101915.44
2022-09-22T19:11:58.729Z,101918.63
2022-09-22T19:15:05.644Z,101920.13
2022-09-22T19:18:09.917Z,101911.94
2022-09-22T19:21:15.508Z,101918.53
2022-09-22T19:24:18.204Z,101912.88
2022-09-22T19:27:22.737Z,101917.31
2022-09-22T19:30:30.890Z,101917.31
2022-09-22T19:33:34.332Z,101923.69
2022-09-22T19:36:37.247Z,101930.25
2022-09-22T19:39:39.980Z,101935.53
2022-09-22T19:42:42.674Z,101929.91
2022-09-22T19:45:47.063Z,101921.69
2022-09-22T19:48:49.700Z,101919.59
2022-09-22T19:51:53.067Z,101920.66
2022-09-22T19:54:55.662Z,101917.13
2022-09-22T19:57:58.335Z,101912.38
2022-09-22T20:01:02.317Z,101912.59
2022-09-22T20:04:06.486Z,101910.75
2022-09-22T20:07:11.054Z,101917.47
2022-09-22T20:10:14.414Z,101914.13
2022-09-22T20:13:30.992Z,101919.59
2022-09-22T20:16:35.101Z,101908.88
2022-09-22T20:19:39.296Z,101907.19
2022-09-22T20:22:42.331Z,101914.16
2022-09-22T20:25:45.050Z,101905.94
2022-09-22T20:28:47.908Z,101905.13
2022-09-22T20:31:52.227Z,101900.69
2022-09-22T20:34:56.339Z,101910.41
2022-09-22T20:37:59.510Z,101906.63
2022-09-22T20:41:02.899Z,101907.25
2022-09-22T20:44:05.713Z,101904.94
2022-09-22T20:47:14.868Z,101902.25
2022-09-22T20:50:18.005Z,101899.97
2022-09-22T20:53:20.882Z,101907.31
2022-09-22T20:56:23.616Z,101907.53
2022-09-22T20:59:26.484Z,101894.94
2022-09-22T21:02:30.926Z,101895.75
2022-09-22T21:05:34.276Z,101898.09
2022-09-22T21:08:56.928Z,101904.22
2022-09-22T21:11:59.782Z,101903.78
2022-09-22T21:15:02.777Z,101898.31
2022-09-22T21:18:06.892Z,101904.44
2022-09-22T21:21:10.246Z,101894.34
2022-09-22T21:24:12.964Z,101904.63
2022-09-22T21:27:16.264Z,101893.50
2022-09-22T21:30:19.142Z,101894.53
2022-09-22T21:33:23.441Z,101898.34
2022-09-22T21:36:26.570Z,101905.06
2022-09-22T21:39:29.411Z,101905.31
2022-09-22T21:42:32.382Z,101908.03
2022-09-22T21:45:35.219Z,101901.09
2022-09-22T21:48:39.587Z,101898.78
2022-09-22T21:55:07.636Z,101900.03
2022-09-22T21:58:10.551Z,101896.06
2022-09-22T22:01:14.835Z,101889.28
2022-09-22T22:04:19.115Z,101896.06
2022-09-22T22:07:23.447Z,101893.34
2022-09-22T22:10:26.183Z,101894.19
2022-09-22T22:13:28.731Z,101896.44
2022-09-22T22:16:35.418Z,101891.41
2022-09-22T22:19:39.334Z,101888.66
2022-09-22T22:22:42.066Z,101893.28
2022-09-22T22:25:44.745Z,101894.75
2022-09-22T22:28:48.345Z,101889.94
2022-09-22T22:31:52.196Z,101888.69
2022-09-22T22:34:56.145Z,101884.91
2022-09-22T22:37:58.820Z,101891.59
2022-09-22T22:41:03.369Z,101881.13
2022-09-22T22:44:07.284Z,101889.50
2022-09-22T22:47:09.901Z,101889.28
2022-09-22T22:50:13.915Z,101886.78
2022-09-22T22:53:16.735Z,101876.88
2022-09-22T22:56:22.405Z,101892.44
2022-09-22T22:59:24.941Z,101878.34
2022-09-22T23:02:30.773Z,101881.31
2022-09-22T23:05:37.410Z,101881.91
2022-09-22T23:08:44.134Z,101882.53
2022-09-22T23:11:47.540Z,101884.03
2022-09-22T23:14:50.579Z,101879.19
2022-09-22T23:17:53.131Z,101879.19
2022-09-22T23:20:57.157Z,101869.72
2022-09-22T23:24:00.948Z,101865.31
2022-09-22T23:27:03.614Z,101857.13
2022-09-22T23:30:07.019Z,101859.88
2022-09-22T23:33:11.240Z,101854.41
2022-09-22T23:36:17.964Z,101860.69
2022-09-22T23:39:20.657Z,101839.50
2022-09-22T23:42:24.243Z,101845.38
2022-09-22T23:45:29.565Z,101845.97
2022-09-22T23:48:32.964Z,101842.41
2022-09-22T23:51:37.036Z,101836.31
2022-09-22T23:54:39.612Z,101830.25
2022-09-22T23:57:42.347Z,101832.53
